sensor_id;sensor_type;location;lat;lon;timestamp;P1;durP1;ratioP1;P2;durP2;ratioP2
49464;SDS011;35358;49.342;8.802;2023-03-05T00:02:03;35.85;;;16.30;;
49464;SDS011;35358;49.342;8.802;2023-03-05T00:04:29;45.35;;;17.70;;
49464;SDS011;35358;49.342;8.802;2023-03-05T00:06:54;35.75;;;16.50;;
49464;SDS011;35358;49.342;8.802;2023-03-05T00:09:22;39.58;;;16.30;;
49464;SDS011;35358;49.342;8.802;2023-03-05T00:11:48;34.90;;;15.98;;
49464;SDS011;35358;49.342;8.802;2023-03-05T00:14:13;37.55;;;16.45;;
49464;SDS011;35358;49.342;8.802;2023-03-05T00:16:41;40.40;;;15.65;;
49464;SDS011;35358;49.342;8.802;2023-03-05T00:19:09;35.08;;;16.40;;
49464;SDS011;35358;49.342;8.802;2023-03-05T00:21:36;32.78;;;16.05;;
49464;SDS011;35358;49.342;8.802;2023-03-05T00:24:04;35.95;;;16.02;;
49464;SDS011;35358;49.342;8.802;2023-03-05T00:26:35;37.13;;;16.00;;
49464;SDS011;35358;49.342;8.802;2023-03-05T00:29:03;43.05;;;17.00;;
49464;SDS011;35358;49.342;8.802;2023-03-05T00:31:32;36.05;;;15.98;;
49464;SDS011;35358;49.342;8.802;2023-03-05T00:34:00;37.28;;;16.00;;
49464;SDS011;35358;49.342;8.802;2023-03-05T00:36:34;40.38;;;15.93;;
49464;SDS011;35358;49.342;8.802;2023-03-05T00:39:03;38.80;;;16.65;;
49464;SDS011;35358;49.342;8.802;2023-03-05T00:41:31;33.08;;;15.90;;
49464;SDS011;35358;49.342;8.802;2023-03-05T00:43:57;36.63;;;15.52;;
49464;SDS011;35358;49.342;8.802;2023-03-05T00:46:25;34.33;;;15.63;;
49464;SDS011;35358;49.342;8.802;2023-03-05T00:48:51;37.78;;;16.15;;
49464;SDS011;35358;49.342;8.802;2023-03-05T00:51:20;39.05;;;16.42;;
49464;SDS011;35358;49.342;8.802;2023-03-05T00:53:45;40.63;;;17.48;;
49464;SDS011;35358;49.342;8.802;2023-03-05T00:56:14;39.13;;;16.38;;
49464;SDS011;35358;49.342;8.802;2023-03-05T00:58:45;38.20;;;16.17;;
49464;SDS011;35358;49.342;8.802;2023-03-05T01:01:12;38.83;;;15.77;;
49464;SDS011;35358;49.342;8.802;2023-03-05T01:03:38;40.65;;;16.63;;
49464;SDS011;35358;49.342;8.802;2023-03-05T01:06:07;34.67;;;15.65;;
49464;SDS011;35358;49.342;8.802;2023-03-05T01:08:37;40.60;;;17.30;;
49464;SDS011;35358;49.342;8.802;2023-03-05T01:11:03;39.00;;;16.40;;
49464;SDS011;35358;49.342;8.802;2023-03-05T01:13:29;38.20;;;16.67;;
49464;SDS011;35358;49.342;8.802;2023-03-05T01:15:55;36.05;;;15.10;;
49464;SDS011;35358;49.342;8.802;2023-03-05T01:18:20;36.30;;;16.45;;
49464;SDS011;35358;49.342;8.802;2023-03-05T01:20:49;35.15;;;17.63;;
49464;SDS011;35358;49.342;8.802;2023-03-05T01:23:15;33.63;;;14.82;;
49464;SDS011;35358;49.342;8.802;2023-03-05T01:25:43;38.97;;;16.58;;
49464;SDS011;35358;49.342;8.802;2023-03-05T01:28:08;37.33;;;15.27;;
49464;SDS011;35358;49.342;8.802;2023-03-05T01:30:34;36.15;;;16.63;;
49464;SDS011;35358;49.342;8.802;2023-03-05T01:33:02;38.42;;;16.75;;
49464;SDS011;35358;49.342;8.802;2023-03-05T01:35:28;39.03;;;16.58;;
49464;SDS011;35358;49.342;8.802;2023-03-05T01:37:54;43.25;;;17.48;;
49464;SDS011;35358;49.342;8.802;2023-03-05T01:40:23;37.05;;;15.90;;
49464;SDS011;35358;49.342;8.802;2023-03-05T01:42:54;42.95;;;16.83;;
49464;SDS011;35358;49.342;8.802;2023-03-05T01:45:25;41.95;;;18.63;;
49464;SDS011;35358;49.342;8.802;2023-03-05T01:47:54;46.08;;;18.85;;
49464;SDS011;35358;49.342;8.802;2023-03-05T01:50:20;40.63;;;17.10;;
49464;SDS011;35358;49.342;8.802;2023-03-05T01:52:49;37.63;;;16.00;;
49464;SDS011;35358;49.342;8.802;2023-03-05T01:55:20;37.70;;;17.75;;
49464;SDS011;35358;49.342;8.802;2023-03-05T01:58:09;45.67;;;16.85;;
49464;SDS011;35358;49.342;8.802;2023-03-05T02:00:45;43.10;;;17.92;;
49464;SDS011;35358;49.342;8.802;2023-03-05T02:03:14;40.53;;;17.58;;
49464;SDS011;35358;49.342;8.802;2023-03-05T02:05:41;45.20;;;18.42;;
49464;SDS011;35358;49.342;8.802;2023-03-05T02:08:12;50.23;;;19.03;;
49464;SDS011;35358;49.342;8.802;2023-03-05T02:10:43;43.60;;;18.85;;
49464;SDS011;35358;49.342;8.802;2023-03-05T02:13:14;44.92;;;18.35;;
49464;SDS011;35358;49.342;8.802;2023-03-05T02:15:43;37.90;;;17.67;;
49464;SDS011;35358;49.342;8.802;2023-03-05T02:18:11;40.25;;;16.67;;
49464;SDS011;35358;49.342;8.802;2023-03-05T02:20:50;43.83;;;17.35;;
49464;SDS011;35358;49.342;8.802;2023-03-05T02:23:19;38.88;;;15.90;;
49464;SDS011;35358;49.342;8.802;2023-03-05T02:25:49;37.28;;;16.25;;
49464;SDS011;35358;49.342;8.802;2023-03-05T02:30:52;39.95;;;16.70;;
49464;SDS011;35358;49.342;8.802;2023-03-05T02:33:18;40.28;;;16.95;;
49464;SDS011;35358;49.342;8.802;2023-03-05T02:35:44;42.90;;;16.25;;
49464;SDS011;35358;49.342;8.802;2023-03-05T02:38:16;37.88;;;16.00;;
49464;SDS011;35358;49.342;8.802;2023-03-05T02:40:43;37.03;;;15.35;;
49464;SDS011;35358;49.342;8.802;2023-03-05T02:43:14;33.67;;;16.00;;
49464;SDS011;35358;49.342;8.802;2023-03-05T02:45:42;44.88;;;16.77;;
49464;SDS011;35358;49.342;8.802;2023-03-05T02:48:07;38.90;;;16.40;;
49464;SDS011;35358;49.342;8.802;2023-03-05T02:50:33;36.13;;;15.98;;
49464;SDS011;35358;49.342;8.802;2023-03-05T02:53:03;39.63;;;17.30;;
49464;SDS011;35358;49.342;8.802;2023-03-05T02:55:29;38.95;;;17.40;;
49464;SDS011;35358;49.342;8.802;2023-03-05T02:57:55;41.45;;;16.48;;
49464;SDS011;35358;49.342;8.802;2023-03-05T03:00:20;34.83;;;15.27;;
49464;SDS011;35358;49.342;8.802;2023-03-05T03:02:49;35.47;;;15.32;;
49464;SDS011;35358;49.342;8.802;2023-03-05T03:05:14;40.38;;;16.88;;
49464;SDS011;35358;49.342;8.802;2023-03-05T03:07:42;35.83;;;15.70;;
49464;SDS011;35358;49.342;8.802;2023-03-05T03:10:08;38.30;;;15.85;;
49464;SDS011;35358;49.342;8.802;2023-03-05T03:12:37;32.58;;;16.17;;
49464;SDS011;35358;49.342;8.802;2023-03-05T03:17:33;38.67;;;15.60;;
49464;SDS011;35358;49.342;8.802;2023-03-05T03:19:59;38.10;;;15.73;;
49464;SDS011;35358;49.342;8.802;2023-03-05T03:22:27;35.90;;;17.63;;
49464;SDS011;35358;49.342;8.802;2023-03-05T03:24:53;38.03;;;15.57;;
49464;SDS011;35358;49.342;8.802;2023-03-05T03:27:21;40.40;;;16.33;;
49464;SDS011;35358;49.342;8.802;2023-03-05T03:29:47;36.65;;;15.88;;
49464;SDS011;35358;49.342;8.802;2023-03-05T03:32:15;39.33;;;17.10;;
49464;SDS011;35358;49.342;8.802;2023-03-05T03:34:40;38.80;;;16.00;;
49464;SDS011;35358;49.342;8.802;2023-03-05T03:37:08;33.55;;;14.52;;
49464;SDS011;35358;49.342;8.802;2023-03-05T03:39:34;32.28;;;15.40;;
49464;SDS011;35358;49.342;8.802;2023-03-05T03:42:02;36.10;;;16.80;;
49464;SDS011;35358;49.342;8.802;2023-03-05T03:44:28;36.45;;;15.27;;
49464;SDS011;35358;49.342;8.802;2023-03-05T03:46:53;37.95;;;15.88;;
49464;SDS011;35358;49.342;8.802;2023-03-05T03:49:20;37.90;;;15.82;;
49464;SDS011;35358;49.342;8.802;2023-03-05T03:51:48;33.88;;;16.15;;
49464;SDS011;35358;49.342;8.802;2023-03-05T03:54:15;35.08;;;14.95;;
49464;SDS011;35358;49.342;8.802;2023-03-05T03:56:42;36.97;;;16.60;;
49464;SDS011;35358;49.342;8.802;2023-03-05T03:59:08;33.47;;;15.38;;
49464;SDS011;35358;49.342;8.802;2023-03-05T04:01:34;34.97;;;15.52;;
49464;SDS011;35358;49.342;8.802;2023-03-05T04:04:03;37.05;;;15.48;;
49464;SDS011;35358;49.342;8.802;2023-03-05T04:06:29;43.00;;;17.08;;
49464;SDS011;35358;49.342;8.802;2023-03-05T04:08:55;35.35;;;15.90;;
49464;SDS011;35358;49.342;8.802;2023-03-05T04:11:23;42.50;;;16.17;;
49464;SDS011;35358;49.342;8.802;2023-03-05T04:13:49;38.58;;;15.30;;
49464;SDS011;35358;49.342;8.802;2023-03-05T04:16:19;38.25;;;16.00;;
49464;SDS011;35358;49.342;8.802;2023-03-05T04:18:47;37.55;;;15.93;;
49464;SDS011;35358;49.342;8.802;2023-03-05T04:21:12;35.83;;;15.95;;
49464;SDS011;35358;49.342;8.802;2023-03-05T04:23:38;43.20;;;15.35;;
49464;SDS011;35358;49.342;8.802;2023-03-05T04:26:04;37.17;;;15.68;;
49464;SDS011;35358;49.342;8.802;2023-03-05T04:28:32;41.15;;;15.55;;
49464;SDS011;35358;49.342;8.802;2023-03-05T04:30:58;38.13;;;15.77;;
49464;SDS011;35358;49.342;8.802;2023-03-05T04:33:24;41.38;;;16.77;;
49464;SDS011;35358;49.342;8.802;2023-03-05T04:35:49;39.90;;;15.73;;
49464;SDS011;35358;49.342;8.802;2023-03-05T04:38:15;36.47;;;15.25;;
49464;SDS011;35358;49.342;8.802;2023-03-05T04:40:43;32.50;;;14.90;;
49464;SDS011;35358;49.342;8.802;2023-03-05T04:43:13;37.20;;;15.85;;
49464;SDS011;35358;49.342;8.802;2023-03-05T04:45:42;36.28;;;15.32;;
49464;SDS011;35358;49.342;8.802;2023-03-05T04:48:10;35.67;;;16.05;;
49464;SDS011;35358;49.342;8.802;2023-03-05T04:50:36;37.47;;;15.68;;
49464;SDS011;35358;49.342;8.802;2023-03-05T04:53:02;36.80;;;14.80;;
49464;SDS011;35358;49.342;8.802;2023-03-05T04:55:28;37.65;;;16.75;;
49464;SDS011;35358;49.342;8.802;2023-03-05T04:57:54;34.40;;;15.88;;
49464;SDS011;35358;49.342;8.802;2023-03-05T05:00:22;37.85;;;16.48;;
49464;SDS011;35358;49.342;8.802;2023-03-05T05:02:48;34.50;;;15.43;;
49464;SDS011;35358;49.342;8.802;2023-03-05T05:05:17;39.88;;;16.35;;
49464;SDS011;35358;49.342;8.802;2023-03-05T05:07:47;38.78;;;14.75;;
49464;SDS011;35358;49.342;8.802;2023-03-05T05:10:15;36.10;;;15.18;;
49464;SDS011;35358;49.342;8.802;2023-03-05T05:12:43;37.95;;;15.82;;
49464;SDS011;35358;49.342;8.802;2023-03-05T05:15:10;36.70;;;14.88;;
49464;SDS011;35358;49.342;8.802;2023-03-05T05:17:39;37.67;;;14.52;;
49464;SDS011;35358;49.342;8.802;2023-03-05T05:20:05;33.17;;;15.13;;
49464;SDS011;35358;49.342;8.802;2023-03-05T05:22:35;40.42;;;17.25;;
49464;SDS011;35358;49.342;8.802;2023-03-05T05:25:01;40.28;;;18.52;;
49464;SDS011;35358;49.342;8.802;2023-03-05T05:27:27;34.55;;;17.08;;
49464;SDS011;35358;49.342;8.802;2023-03-05T05:29:52;40.47;;;16.92;;
49464;SDS011;35358;49.342;8.802;2023-03-05T05:32:19;39.25;;;16.52;;
49464;SDS011;35358;49.342;8.802;2023-03-05T05:34:51;35.08;;;15.95;;
49464;SDS011;35358;49.342;8.802;2023-03-05T05:37:19;35.95;;;15.85;;
49464;SDS011;35358;49.342;8.802;2023-03-05T05:39:47;36.80;;;16.30;;
49464;SDS011;35358;49.342;8.802;2023-03-05T05:42:17;37.67;;;16.08;;
49464;SDS011;35358;49.342;8.802;2023-03-05T05:44:45;33.92;;;15.45;;
49464;SDS011;35358;49.342;8.802;2023-03-05T05:47:11;36.67;;;14.88;;
49464;SDS011;35358;49.342;8.802;2023-03-05T05:49:40;32.72;;;14.65;;
49464;SDS011;35358;49.342;8.802;2023-03-05T05:52:08;31.45;;;14.60;;
49464;SDS011;35358;49.342;8.802;2023-03-05T05:54:34;33.80;;;14.98;;
49464;SDS011;35358;49.342;8.802;2023-03-05T05:56:59;33.20;;;14.40;;
49464;SDS011;35358;49.342;8.802;2023-03-05T05:59:27;31.23;;;15.52;;
49464;SDS011;35358;49.342;8.802;2023-03-05T06:01:55;36.13;;;15.07;;
49464;SDS011;35358;49.342;8.802;2023-03-05T06:04:23;37.92;;;14.65;;
49464;SDS011;35358;49.342;8.802;2023-03-05T06:06:49;33.60;;;14.90;;
49464;SDS011;35358;49.342;8.802;2023-03-05T06:09:15;37.92;;;15.27;;
49464;SDS011;35358;49.342;8.802;2023-03-05T06:11:43;34.38;;;15.65;;
49464;SDS011;35358;49.342;8.802;2023-03-05T06:14:11;31.85;;;15.07;;
49464;SDS011;35358;49.342;8.802;2023-03-05T06:16:37;36.53;;;16.73;;
49464;SDS011;35358;49.342;8.802;2023-03-05T06:19:07;33.80;;;15.65;;
49464;SDS011;35358;49.342;8.802;2023-03-05T06:21:35;34.97;;;16.08;;
49464;SDS011;35358;49.342;8.802;2023-03-05T06:24:01;38.63;;;16.38;;
49464;SDS011;35358;49.342;8.802;2023-03-05T06:26:27;33.70;;;16.17;;
49464;SDS011;35358;49.342;8.802;2023-03-05T06:28:52;42.30;;;16.80;;
49464;SDS011;35358;49.342;8.802;2023-03-05T06:31:19;36.13;;;16.15;;
49464;SDS011;35358;49.342;8.802;2023-03-05T06:33:49;33.67;;;15.68;;
49464;SDS011;35358;49.342;8.802;2023-03-05T06:36:19;37.07;;;17.13;;
49464;SDS011;35358;49.342;8.802;2023-03-05T06:41:15;41.08;;;15.80;;
49464;SDS011;35358;49.342;8.802;2023-03-05T06:43:47;37.83;;;16.08;;
49464;SDS011;35358;49.342;8.802;2023-03-05T06:46:17;32.90;;;16.42;;
49464;SDS011;35358;49.342;8.802;2023-03-05T06:48:42;41.67;;;16.55;;
49464;SDS011;35358;49.342;8.802;2023-03-05T06:51:27;41.53;;;15.65;;
49464;SDS011;35358;49.342;8.802;2023-03-05T06:53:59;38.78;;;16.58;;
49464;SDS011;35358;49.342;8.802;2023-03-05T06:56:31;37.78;;;16.13;;
49464;SDS011;35358;49.342;8.802;2023-03-05T06:59:02;42.53;;;17.00;;
49464;SDS011;35358;49.342;8.802;2023-03-05T07:01:33;47.47;;;16.48;;
49464;SDS011;35358;49.342;8.802;2023-03-05T07:03:58;38.47;;;17.20;;
49464;SDS011;35358;49.342;8.802;2023-03-05T07:06:27;39.72;;;16.95;;
49464;SDS011;35358;49.342;8.802;2023-03-05T07:08:55;42.15;;;16.77;;
49464;SDS011;35358;49.342;8.802;2023-03-05T07:11:25;39.22;;;17.33;;
49464;SDS011;35358;49.342;8.802;2023-03-05T07:13:51;41.10;;;17.63;;
49464;SDS011;35358;49.342;8.802;2023-03-05T07:16:21;38.65;;;15.73;;
49464;SDS011;35358;49.342;8.802;2023-03-05T07:18:50;39.33;;;16.77;;
49464;SDS011;35358;49.342;8.802;2023-03-05T07:21:18;40.60;;;17.08;;
49464;SDS011;35358;49.342;8.802;2023-03-05T07:26:12;45.88;;;19.05;;
49464;SDS011;35358;49.342;8.802;2023-03-05T07:28:41;39.65;;;16.40;;
49464;SDS011;35358;49.342;8.802;2023-03-05T07:31:09;43.33;;;17.17;;
49464;SDS011;35358;49.342;8.802;2023-03-05T07:33:40;42.13;;;17.00;;
49464;SDS011;35358;49.342;8.802;2023-03-05T07:36:08;38.33;;;15.35;;
49464;SDS011;35358;49.342;8.802;2023-03-05T07:38:37;40.75;;;18.02;;
49464;SDS011;35358;49.342;8.802;2023-03-05T07:41:04;43.50;;;16.98;;
49464;SDS011;35358;49.342;8.802;2023-03-05T07:43:31;45.38;;;18.05;;
49464;SDS011;35358;49.342;8.802;2023-03-05T07:45:59;35.10;;;16.10;;
49464;SDS011;35358;49.342;8.802;2023-03-05T07:48:31;44.85;;;18.10;;
49464;SDS011;35358;49.342;8.802;2023-03-05T07:51:03;45.08;;;18.30;;
49464;SDS011;35358;49.342;8.802;2023-03-05T07:53:34;40.17;;;17.38;;
49464;SDS011;35358;49.342;8.802;2023-03-05T07:56:00;44.72;;;18.52;;
49464;SDS011;35358;49.342;8.802;2023-03-05T07:58:26;42.40;;;18.52;;
49464;SDS011;35358;49.342;8.802;2023-03-05T08:00:51;46.38;;;19.25;;
49464;SDS011;35358;49.342;8.802;2023-03-05T08:03:17;39.85;;;18.35;;
49464;SDS011;35358;49.342;8.802;2023-03-05T08:05:45;46.10;;;20.33;;
49464;SDS011;35358;49.342;8.802;2023-03-05T08:08:10;44.67;;;20.58;;
49464;SDS011;35358;49.342;8.802;2023-03-05T08:10:36;45.30;;;20.55;;
49464;SDS011;35358;49.342;8.802;2023-03-05T08:13:02;41.15;;;17.70;;
49464;SDS011;35358;49.342;8.802;2023-03-05T08:15:29;45.97;;;21.20;;
49464;SDS011;35358;49.342;8.802;2023-03-05T08:17:58;41.83;;;18.38;;
49464;SDS011;35358;49.342;8.802;2023-03-05T08:20:23;40.47;;;19.95;;
49464;SDS011;35358;49.342;8.802;2023-03-05T08:22:49;43.38;;;19.90;;
49464;SDS011;35358;49.342;8.802;2023-03-05T08:25:15;41.83;;;18.45;;
49464;SDS011;35358;49.342;8.802;2023-03-05T08:27:42;42.28;;;17.45;;
49464;SDS011;35358;49.342;8.802;2023-03-05T08:30:12;41.47;;;17.23;;
49464;SDS011;35358;49.342;8.802;2023-03-05T08:32:42;38.92;;;18.30;;
49464;SDS011;35358;49.342;8.802;2023-03-05T08:35:12;32.70;;;16.63;;
49464;SDS011;35358;49.342;8.802;2023-03-05T08:37:37;34.58;;;16.00;;
49464;SDS011;35358;49.342;8.802;2023-03-05T08:40:03;32.08;;;16.23;;
49464;SDS011;35358;49.342;8.802;2023-03-05T08:42:31;36.08;;;16.92;;
49464;SDS011;35358;49.342;8.802;2023-03-05T08:44:59;37.78;;;17.90;;
49464;SDS011;35358;49.342;8.802;2023-03-05T08:47:27;32.67;;;15.45;;
49464;SDS011;35358;49.342;8.802;2023-03-05T08:49:53;33.42;;;16.10;;
49464;SDS011;35358;49.342;8.802;2023-03-05T08:52:21;32.65;;;15.15;;
49464;SDS011;35358;49.342;8.802;2023-03-05T08:54:51;33.28;;;15.48;;
49464;SDS011;35358;49.342;8.802;2023-03-05T08:57:19;33.65;;;16.00;;
49464;SDS011;35358;49.342;8.802;2023-03-05T08:59:47;37.92;;;17.02;;
49464;SDS011;35358;49.342;8.802;2023-03-05T09:02:15;38.72;;;17.40;;
49464;SDS011;35358;49.342;8.802;2023-03-05T09:04:42;38.70;;;17.42;;
49464;SDS011;35358;49.342;8.802;2023-03-05T09:07:10;36.08;;;17.35;;
49464;SDS011;35358;49.342;8.802;2023-03-05T09:09:37;33.97;;;17.45;;
49464;SDS011;35358;49.342;8.802;2023-03-05T09:12:05;30.55;;;15.45;;
49464;SDS011;35358;49.342;8.802;2023-03-05T09:14:30;32.08;;;15.13;;
49464;SDS011;35358;49.342;8.802;2023-03-05T09:16:56;34.13;;;16.63;;
49464;SDS011;35358;49.342;8.802;2023-03-05T09:19:22;29.90;;;15.43;;
49464;SDS011;35358;49.342;8.802;2023-03-05T09:21:48;27.45;;;15.45;;
49464;SDS011;35358;49.342;8.802;2023-03-05T09:24:14;30.38;;;14.82;;
49464;SDS011;35358;49.342;8.802;2023-03-05T09:26:40;31.65;;;15.57;;
49464;SDS011;35358;49.342;8.802;2023-03-05T09:29:08;32.17;;;16.52;;
49464;SDS011;35358;49.342;8.802;2023-03-05T09:31:34;33.30;;;16.38;;
49464;SDS011;35358;49.342;8.802;2023-03-05T09:34:00;36.90;;;16.92;;
49464;SDS011;35358;49.342;8.802;2023-03-05T09:36:27;36.13;;;16.75;;
49464;SDS011;35358;49.342;8.802;2023-03-05T09:38:54;31.10;;;15.20;;
49464;SDS011;35358;49.342;8.802;2023-03-05T09:44:06;32.97;;;15.80;;
49464;SDS011;35358;49.342;8.802;2023-03-05T09:49:57;25.35;;;12.20;;
49464;SDS011;35358;49.342;8.802;2023-03-05T09:52:40;22.95;;;12.70;;
49464;SDS011;35358;49.342;8.802;2023-03-05T09:55:16;23.70;;;11.32;;
49464;SDS011;35358;49.342;8.802;2023-03-05T10:01:01;17.17;;;10.13;;
49464;SDS011;35358;49.342;8.802;2023-03-05T10:06:13;14.18;;;8.48;;
49464;SDS011;35358;49.342;8.802;2023-03-05T10:11:33;13.43;;;6.55;;
49464;SDS011;35358;49.342;8.802;2023-03-05T10:14:13;15.63;;;8.73;;
49464;SDS011;35358;49.342;8.802;2023-03-05T10:44:47;10.70;;;6.45;;
49464;SDS011;35358;49.342;8.802;2023-03-05T10:50:26;11.45;;;6.30;;
49464;SDS011;35358;49.342;8.802;2023-03-05T10:55:32;12.05;;;6.00;;
49464;SDS011;35358;49.342;8.802;2023-03-05T10:57:57;12.38;;;6.15;;
49464;SDS011;35358;49.342;8.802;2023-03-05T11:00:25;11.00;;;5.97;;
49464;SDS011;35358;49.342;8.802;2023-03-05T11:03:01;20.08;;;7.97;;
49464;SDS011;35358;49.342;8.802;2023-03-05T11:13:35;14.07;;;6.78;;
49464;SDS011;35358;49.342;8.802;2023-03-05T11:16:05;13.35;;;6.03;;
49464;SDS011;35358;49.342;8.802;2023-03-05T11:18:39;12.48;;;6.57;;
49464;SDS011;35358;49.342;8.802;2023-03-05T11:21:17;10.98;;;6.80;;
49464;SDS011;35358;49.342;8.802;2023-03-05T11:24:02;13.23;;;6.32;;
49464;SDS011;35358;49.342;8.802;2023-03-05T11:29:30;13.55;;;6.28;;
49464;SDS011;35358;49.342;8.802;2023-03-05T11:34:45;12.60;;;7.25;;
49464;SDS011;35358;49.342;8.802;2023-03-05T11:37:18;14.90;;;7.65;;
49464;SDS011;35358;49.342;8.802;2023-03-05T11:40:04;13.30;;;7.15;;
49464;SDS011;35358;49.342;8.802;2023-03-05T11:42:58;14.27;;;5.93;;
49464;SDS011;35358;49.342;8.802;2023-03-05T11:45:27;13.10;;;6.55;;
49464;SDS011;35358;49.342;8.802;2023-03-05T11:47:57;13.07;;;7.22;;
49464;SDS011;35358;49.342;8.802;2023-03-05T11:50:47;14.27;;;7.00;;
49464;SDS011;35358;49.342;8.802;2023-03-05T11:53:23;16.23;;;8.50;;
49464;SDS011;35358;49.342;8.802;2023-03-05T11:56:02;15.48;;;8.52;;
49464;SDS011;35358;49.342;8.802;2023-03-05T12:01:05;14.82;;;6.95;;
49464;SDS011;35358;49.342;8.802;2023-03-05T12:03:53;17.95;;;9.52;;
49464;SDS011;35358;49.342;8.802;2023-03-05T12:06:24;19.02;;;8.77;;
49464;SDS011;35358;49.342;8.802;2023-03-05T12:08:59;15.80;;;7.15;;
49464;SDS011;35358;49.342;8.802;2023-03-05T12:11:33;15.35;;;8.32;;
49464;SDS011;35358;49.342;8.802;2023-03-05T12:16:32;16.33;;;7.90;;
49464;SDS011;35358;49.342;8.802;2023-03-05T12:22:10;15.40;;;7.03;;
49464;SDS011;35358;49.342;8.802;2023-03-05T12:24:47;13.40;;;6.90;;
49464;SDS011;35358;49.342;8.802;2023-03-05T12:27:14;13.23;;;6.50;;
49464;SDS011;35358;49.342;8.802;2023-03-05T12:30:02;12.60;;;5.95;;
49464;SDS011;35358;49.342;8.802;2023-03-05T12:32:51;14.98;;;6.85;;
49464;SDS011;35358;49.342;8.802;2023-03-05T12:42:45;9.82;;;5.68;;
49464;SDS011;35358;49.342;8.802;2023-03-05T12:45:22;11.93;;;5.80;;
49464;SDS011;35358;49.342;8.802;2023-03-05T12:55:34;12.23;;;5.03;;
49464;SDS011;35358;49.342;8.802;2023-03-05T13:03:15;10.15;;;6.05;;
49464;SDS011;35358;49.342;8.802;2023-03-05T13:05:51;10.07;;;5.22;;
49464;SDS011;35358;49.342;8.802;2023-03-05T13:08:23;8.43;;;4.05;;
49464;SDS011;35358;49.342;8.802;2023-03-05T13:10:51;10.15;;;5.43;;
49464;SDS011;35358;49.342;8.802;2023-03-05T13:13:25;8.15;;;4.28;;
49464;SDS011;35358;49.342;8.802;2023-03-05T13:15:56;16.20;;;7.85;;
49464;SDS011;35358;49.342;8.802;2023-03-05T13:18:25;11.38;;;5.47;;
49464;SDS011;35358;49.342;8.802;2023-03-05T13:21:06;10.93;;;5.95;;
49464;SDS011;35358;49.342;8.802;2023-03-05T13:23:37;9.93;;;5.82;;
49464;SDS011;35358;49.342;8.802;2023-03-05T13:26:13;9.93;;;4.68;;
49464;SDS011;35358;49.342;8.802;2023-03-05T13:29:27;8.23;;;3.72;;
49464;SDS011;35358;49.342;8.802;2023-03-05T13:31:35;7.25;;;4.00;;
49464;SDS011;35358;49.342;8.802;2023-03-05T13:34:07;10.20;;;4.20;;
49464;SDS011;35358;49.342;8.802;2023-03-05T13:36:36;17.80;;;8.77;;
49464;SDS011;35358;49.342;8.802;2023-03-05T13:39:04;9.63;;;4.45;;
49464;SDS011;35358;49.342;8.802;2023-03-05T13:41:31;7.85;;;4.13;;
49464;SDS011;35358;49.342;8.802;2023-03-05T13:43:57;11.38;;;5.50;;
49464;SDS011;35358;49.342;8.802;2023-03-05T13:46:34;8.10;;;3.35;;
49464;SDS011;35358;49.342;8.802;2023-03-05T13:51:46;6.30;;;3.50;;
49464;SDS011;35358;49.342;8.802;2023-03-05T13:54:19;7.22;;;3.83;;
49464;SDS011;35358;49.342;8.802;2023-03-05T13:59:24;7.78;;;3.20;;
49464;SDS011;35358;49.342;8.802;2023-03-05T14:01:53;11.88;;;4.95;;
49464;SDS011;35358;49.342;8.802;2023-03-05T14:06:58;8.55;;;4.22;;
49464;SDS011;35358;49.342;8.802;2023-03-05T14:09:29;8.60;;;4.50;;
49464;SDS011;35358;49.342;8.802;2023-03-05T14:12:02;9.45;;;4.43;;
49464;SDS011;35358;49.342;8.802;2023-03-05T14:14:33;8.77;;;4.05;;
49464;SDS011;35358;49.342;8.802;2023-03-05T14:19:47;11.15;;;4.95;;
49464;SDS011;35358;49.342;8.802;2023-03-05T14:25:01;9.10;;;4.22;;
49464;SDS011;35358;49.342;8.802;2023-03-05T14:27:32;11.07;;;4.90;;
49464;SDS011;35358;49.342;8.802;2023-03-05T14:30:00;14.27;;;7.00;;
49464;SDS011;35358;49.342;8.802;2023-03-05T14:32:35;10.70;;;5.57;;
49464;SDS011;35358;49.342;8.802;2023-03-05T14:35:02;7.97;;;4.88;;
49464;SDS011;35358;49.342;8.802;2023-03-05T14:37:32;9.93;;;4.23;;
49464;SDS011;35358;49.342;8.802;2023-03-05T14:45:20;9.18;;;5.20;;
49464;SDS011;35358;49.342;8.802;2023-03-05T14:47:53;11.15;;;6.15;;
49464;SDS011;35358;49.342;8.802;2023-03-05T14:52:47;9.43;;;5.07;;
49464;SDS011;35358;49.342;8.802;2023-03-05T14:55:22;11.50;;;5.13;;
49464;SDS011;35358;49.342;8.802;2023-03-05T14:57:55;9.88;;;4.50;;
49464;SDS011;35358;49.342;8.802;2023-03-05T15:00:26;8.60;;;5.55;;
49464;SDS011;35358;49.342;8.802;2023-03-05T15:02:55;9.73;;;6.35;;
49464;SDS011;35358;49.342;8.802;2023-03-05T15:05:25;10.57;;;5.75;;
49464;SDS011;35358;49.342;8.802;2023-03-05T15:07:51;8.50;;;4.32;;
49464;SDS011;35358;49.342;8.802;2023-03-05T15:10:18;7.07;;;3.85;;
49464;SDS011;35358;49.342;8.802;2023-03-05T15:12:47;9.65;;;3.83;;
49464;SDS011;35358;49.342;8.802;2023-03-05T15:15:15;8.95;;;5.18;;
49464;SDS011;35358;49.342;8.802;2023-03-05T15:17:42;10.43;;;3.30;;
49464;SDS011;35358;49.342;8.802;2023-03-05T15:20:30;6.28;;;3.53;;
49464;SDS011;35358;49.342;8.802;2023-03-05T15:22:56;11.15;;;5.25;;
49464;SDS011;35358;49.342;8.802;2023-03-05T15:25:23;6.57;;;3.72;;
49464;SDS011;35358;49.342;8.802;2023-03-05T15:27:50;7.68;;;2.95;;
49464;SDS011;35358;49.342;8.802;2023-03-05T15:30:26;7.85;;;3.75;;
49464;SDS011;35358;49.342;8.802;2023-03-05T15:33:07;7.68;;;3.65;;
49464;SDS011;35358;49.342;8.802;2023-03-05T15:35:36;37.15;;;20.60;;
49464;SDS011;35358;49.342;8.802;2023-03-05T15:38:02;14.52;;;7.65;;
49464;SDS011;35358;49.342;8.802;2023-03-05T15:40:28;11.40;;;7.55;;
49464;SDS011;35358;49.342;8.802;2023-03-05T15:42:54;8.90;;;4.50;;
49464;SDS011;35358;49.342;8.802;2023-03-05T15:45:20;7.47;;;3.30;;
49464;SDS011;35358;49.342;8.802;2023-03-05T15:47:49;7.25;;;3.90;;
49464;SDS011;35358;49.342;8.802;2023-03-05T15:50:16;6.30;;;3.60;;
49464;SDS011;35358;49.342;8.802;2023-03-05T15:52:43;6.63;;;4.22;;
49464;SDS011;35358;49.342;8.802;2023-03-05T15:55:11;7.45;;;3.97;;
49464;SDS011;35358;49.342;8.802;2023-03-05T15:57:41;6.35;;;2.97;;
49464;SDS011;35358;49.342;8.802;2023-03-05T16:00:08;5.88;;;3.25;;
49464;SDS011;35358;49.342;8.802;2023-03-05T16:05:03;5.03;;;2.42;;
49464;SDS011;35358;49.342;8.802;2023-03-05T16:07:32;5.93;;;2.55;;
49464;SDS011;35358;49.342;8.802;2023-03-05T16:10:02;5.07;;;2.70;;
49464;SDS011;35358;49.342;8.802;2023-03-05T16:12:32;4.38;;;2.30;;
49464;SDS011;35358;49.342;8.802;2023-03-05T16:15:06;5.30;;;3.15;;
49464;SDS011;35358;49.342;8.802;2023-03-05T16:17:33;7.85;;;2.85;;
49464;SDS011;35358;49.342;8.802;2023-03-05T16:19:58;5.70;;;3.03;;
49464;SDS011;35358;49.342;8.802;2023-03-05T16:22:27;5.95;;;3.08;;
49464;SDS011;35358;49.342;8.802;2023-03-05T16:24:52;7.07;;;3.20;;
49464;SDS011;35358;49.342;8.802;2023-03-05T16:27:20;7.32;;;3.83;;
49464;SDS011;35358;49.342;8.802;2023-03-05T16:29:48;7.20;;;2.90;;
49464;SDS011;35358;49.342;8.802;2023-03-05T16:32:16;6.00;;;2.90;;
49464;SDS011;35358;49.342;8.802;2023-03-05T16:34:42;4.82;;;3.08;;
49464;SDS011;35358;49.342;8.802;2023-03-05T16:37:08;5.70;;;3.22;;
49464;SDS011;35358;49.342;8.802;2023-03-05T16:39:44;6.60;;;3.10;;
49464;SDS011;35358;49.342;8.802;2023-03-05T16:42:10;5.50;;;2.80;;
49464;SDS011;35358;49.342;8.802;2023-03-05T16:44:39;5.50;;;3.00;;